Terminal Aerodrome Forecast
Issued by NWS

Home | Current Version | Previous Version | Text Only | Print | Product List | Glossary On
Versions: 1 2 3 4 5 6 7 8 9 10 11 12 13 14 15 16 17 18 19 20 21 22 23 24 25 26 27 28 29 30 31 32 33 34 35 36 37 38 39 40 41 42 43 44 45 46 47 48
000
FTUS42 KMFL 261003 AAB
TAFTMB
TAF AMD
KTMB 261003Z 2610/2706 VRB05KT P6SM VCTS FEW025CB BKN035
     FM261600 23009KT P6SM VCSH SCT025
     FM261800 23009KT P6SM VCTS SCT030CB
     FM270000 25005KT P6SM SCT025=

USA.gov is the U.S. government's official web portal to all federal, state and local government web resources and services.